Tolani, Arizona
Current Conditions -  °F | °C
As of 9:56 PM on Saturday 25 Oct 2014 (Local Time) from KINW Reporting Station
Clear Clear  
Wind Chill: 58°   Ceiling: Unl
Heat Index: 58°   Visibility: 10mi
Dew Point: 45°   Wind: 7mph
Humidity: 62%   Direction: 240°WSW
Pressure: 30.17"   Gusts: NA
Location:  35.1934°N, 110.361°W
Report Text: KINW 260456Z AUTO 24006KT 10SM CLR 14/07 A3017 RMK AO2 SLP166 T01440072
Loading
Personal Weather Stations






























Interactive Weather Map
Tropical Storm Tracking
New forecast layout! Learn more

10-Day Weather Forecast

Advertisements
Track Severe Weather on mobile